sensor_id;sensor_type;location;lat;lon;timestamp;P1;durP1;ratioP1;P2;durP2;ratioP2
45730;SDS011;31440;48.584;13.460;2023-03-01T00:01:12;18.20;;;9.80;;
45730;SDS011;31440;48.584;13.460;2023-03-01T00:04:21;15.15;;;9.93;;
45730;SDS011;31440;48.584;13.460;2023-03-01T00:07:26;17.05;;;9.82;;
45730;SDS011;31440;48.584;13.460;2023-03-01T00:10:31;16.42;;;9.48;;
45730;SDS011;31440;48.584;13.460;2023-03-01T00:13:35;19.65;;;10.13;;
45730;SDS011;31440;48.584;13.460;2023-03-01T00:19:46;17.83;;;9.75;;
45730;SDS011;31440;48.584;13.460;2023-03-01T00:22:50;17.88;;;9.77;;
45730;SDS011;31440;48.584;13.460;2023-03-01T00:25:55;19.52;;;10.18;;
45730;SDS011;31440;48.584;13.460;2023-03-01T00:32:06;17.35;;;9.50;;
45730;SDS011;31440;48.584;13.460;2023-03-01T00:35:10;17.15;;;10.00;;
45730;SDS011;31440;48.584;13.460;2023-03-01T00:38:15;17.20;;;10.75;;
45730;SDS011;31440;48.584;13.460;2023-03-01T00:41:20;18.13;;;9.88;;
45730;SDS011;31440;48.584;13.460;2023-03-01T00:44:26;16.23;;;9.30;;
45730;SDS011;31440;48.584;13.460;2023-03-01T00:47:32;19.63;;;9.77;;
45730;SDS011;31440;48.584;13.460;2023-03-01T00:50:36;18.92;;;10.93;;
45730;SDS011;31440;48.584;13.460;2023-03-01T00:53:41;15.95;;;9.55;;
45730;SDS011;31440;48.584;13.460;2023-03-01T00:56:49;18.98;;;9.60;;
45730;SDS011;31440;48.584;13.460;2023-03-01T00:59:54;23.40;;;10.88;;
45730;SDS011;31440;48.584;13.460;2023-03-01T01:02:58;17.67;;;9.63;;
45730;SDS011;31440;48.584;13.460;2023-03-01T01:06:03;19.15;;;10.38;;
45730;SDS011;31440;48.584;13.460;2023-03-01T01:09:14;17.08;;;8.93;;
45730;SDS011;31440;48.584;13.460;2023-03-01T01:12:23;15.25;;;9.57;;
45730;SDS011;31440;48.584;13.460;2023-03-01T01:15:28;16.70;;;10.45;;
45730;SDS011;31440;48.584;13.460;2023-03-01T01:18:33;17.73;;;9.20;;
45730;SDS011;31440;48.584;13.460;2023-03-01T01:21:38;15.65;;;9.07;;
45730;SDS011;31440;48.584;13.460;2023-03-01T01:24:43;19.13;;;11.02;;
45730;SDS011;31440;48.584;13.460;2023-03-01T01:27:47;16.73;;;10.15;;
45730;SDS011;31440;48.584;13.460;2023-03-01T01:30:52;17.13;;;10.30;;
45730;SDS011;31440;48.584;13.460;2023-03-01T01:33:57;19.67;;;10.18;;
45730;SDS011;31440;48.584;13.460;2023-03-01T01:37:03;21.67;;;9.52;;
45730;SDS011;31440;48.584;13.460;2023-03-01T01:40:12;17.35;;;10.93;;
45730;SDS011;31440;48.584;13.460;2023-03-01T01:43:21;18.88;;;10.27;;
45730;SDS011;31440;48.584;13.460;2023-03-01T01:46:34;19.67;;;10.50;;
45730;SDS011;31440;48.584;13.460;2023-03-01T01:52:48;18.10;;;10.30;;
45730;SDS011;31440;48.584;13.460;2023-03-01T01:55:58;21.25;;;11.35;;
45730;SDS011;31440;48.584;13.460;2023-03-01T01:59:05;22.45;;;11.48;;
45730;SDS011;31440;48.584;13.460;2023-03-01T02:02:10;16.58;;;11.20;;
45730;SDS011;31440;48.584;13.460;2023-03-01T02:08:48;23.25;;;10.98;;
45730;SDS011;31440;48.584;13.460;2023-03-01T02:11:56;19.42;;;10.55;;
45730;SDS011;31440;48.584;13.460;2023-03-01T02:15:02;18.88;;;10.45;;
45730;SDS011;31440;48.584;13.460;2023-03-01T02:18:07;20.67;;;11.77;;
45730;SDS011;31440;48.584;13.460;2023-03-01T02:21:29;19.13;;;10.38;;
45730;SDS011;31440;48.584;13.460;2023-03-01T02:24:51;20.50;;;10.73;;
45730;SDS011;31440;48.584;13.460;2023-03-01T02:31:18;20.45;;;10.23;;
45730;SDS011;31440;48.584;13.460;2023-03-01T02:34:43;21.58;;;11.55;;
45730;SDS011;31440;48.584;13.460;2023-03-01T02:37:50;27.90;;;11.75;;
45730;SDS011;31440;48.584;13.460;2023-03-01T02:40:55;22.98;;;11.55;;
45730;SDS011;31440;48.584;13.460;2023-03-01T02:44:02;23.85;;;12.80;;
45730;SDS011;31440;48.584;13.460;2023-03-01T02:47:08;20.17;;;11.32;;
45730;SDS011;31440;48.584;13.460;2023-03-01T02:57:19;20.38;;;10.63;;
45730;SDS011;31440;48.584;13.460;2023-03-01T03:00:31;21.83;;;11.13;;
45730;SDS011;31440;48.584;13.460;2023-03-01T03:03:40;17.40;;;9.73;;
45730;SDS011;31440;48.584;13.460;2023-03-01T03:09:53;21.83;;;12.15;;
45730;SDS011;31440;48.584;13.460;2023-03-01T03:12:59;26.23;;;11.85;;
45730;SDS011;31440;48.584;13.460;2023-03-01T03:16:08;18.75;;;10.73;;
45730;SDS011;31440;48.584;13.460;2023-03-01T03:19:13;18.73;;;10.38;;
45730;SDS011;31440;48.584;13.460;2023-03-01T03:22:19;19.77;;;10.93;;
45730;SDS011;31440;48.584;13.460;2023-03-01T03:25:24;23.48;;;11.93;;
45730;SDS011;31440;48.584;13.460;2023-03-01T03:28:30;22.65;;;12.45;;
45730;SDS011;31440;48.584;13.460;2023-03-01T03:31:35;15.85;;;10.23;;
45730;SDS011;31440;48.584;13.460;2023-03-01T03:34:40;20.75;;;12.23;;
45730;SDS011;31440;48.584;13.460;2023-03-01T03:37:45;20.05;;;10.10;;
45730;SDS011;31440;48.584;13.460;2023-03-01T03:41:09;19.13;;;11.70;;
45730;SDS011;31440;48.584;13.460;2023-03-01T03:44:14;20.83;;;11.13;;
45730;SDS011;31440;48.584;13.460;2023-03-01T03:47:18;21.05;;;11.68;;
45730;SDS011;31440;48.584;13.460;2023-03-01T03:50:23;20.67;;;12.18;;
45730;SDS011;31440;48.584;13.460;2023-03-01T03:53:28;25.33;;;12.23;;
45730;SDS011;31440;48.584;13.460;2023-03-01T03:56:33;19.92;;;11.02;;
45730;SDS011;31440;48.584;13.460;2023-03-01T03:59:38;23.35;;;11.63;;
45730;SDS011;31440;48.584;13.460;2023-03-01T04:02:43;20.88;;;11.23;;
45730;SDS011;31440;48.584;13.460;2023-03-01T04:05:49;25.70;;;13.15;;
45730;SDS011;31440;48.584;13.460;2023-03-01T04:08:57;20.33;;;11.35;;
45730;SDS011;31440;48.584;13.460;2023-03-01T04:12:04;27.00;;;12.98;;
45730;SDS011;31440;48.584;13.460;2023-03-01T04:15:09;22.25;;;11.30;;
45730;SDS011;31440;48.584;13.460;2023-03-01T04:18:18;21.00;;;11.70;;
45730;SDS011;31440;48.584;13.460;2023-03-01T04:21:24;16.50;;;10.45;;
45730;SDS011;31440;48.584;13.460;2023-03-01T04:24:28;23.15;;;11.77;;
45730;SDS011;31440;48.584;13.460;2023-03-01T04:27:34;18.98;;;11.30;;
45730;SDS011;31440;48.584;13.460;2023-03-01T04:30:39;22.70;;;11.90;;
45730;SDS011;31440;48.584;13.460;2023-03-01T04:33:45;15.90;;;10.48;;
45730;SDS011;31440;48.584;13.460;2023-03-01T04:36:51;26.02;;;12.77;;
45730;SDS011;31440;48.584;13.460;2023-03-01T04:39:56;22.40;;;12.40;;
45730;SDS011;31440;48.584;13.460;2023-03-01T04:43:02;21.75;;;12.00;;
45730;SDS011;31440;48.584;13.460;2023-03-01T04:46:10;23.88;;;11.63;;
45730;SDS011;31440;48.584;13.460;2023-03-01T04:49:18;23.08;;;12.85;;
45730;SDS011;31440;48.584;13.460;2023-03-01T04:52:23;21.42;;;11.60;;
45730;SDS011;31440;48.584;13.460;2023-03-01T04:55:28;23.20;;;11.50;;
45730;SDS011;31440;48.584;13.460;2023-03-01T04:58:33;24.92;;;12.30;;
45730;SDS011;31440;48.584;13.460;2023-03-01T05:01:38;24.13;;;12.30;;
45730;SDS011;31440;48.584;13.460;2023-03-01T05:04:42;25.02;;;12.65;;
45730;SDS011;31440;48.584;13.460;2023-03-01T05:07:47;24.60;;;13.65;;
45730;SDS011;31440;48.584;13.460;2023-03-01T05:10:52;27.80;;;12.00;;
45730;SDS011;31440;48.584;13.460;2023-03-01T05:13:57;24.08;;;12.05;;
45730;SDS011;31440;48.584;13.460;2023-03-01T05:17:02;22.25;;;12.60;;
45730;SDS011;31440;48.584;13.460;2023-03-01T05:20:08;22.73;;;11.45;;
45730;SDS011;31440;48.584;13.460;2023-03-01T05:23:14;29.65;;;13.00;;
45730;SDS011;31440;48.584;13.460;2023-03-01T05:26:19;25.67;;;12.95;;
45730;SDS011;31440;48.584;13.460;2023-03-01T05:29:34;24.58;;;12.63;;
45730;SDS011;31440;48.584;13.460;2023-03-01T05:32:42;25.33;;;13.15;;
45730;SDS011;31440;48.584;13.460;2023-03-01T05:35:49;27.10;;;12.93;;
45730;SDS011;31440;48.584;13.460;2023-03-01T05:42:00;23.35;;;12.82;;
45730;SDS011;31440;48.584;13.460;2023-03-01T05:45:05;23.83;;;12.15;;
45730;SDS011;31440;48.584;13.460;2023-03-01T05:48:13;22.35;;;12.05;;
45730;SDS011;31440;48.584;13.460;2023-03-01T05:51:18;22.48;;;12.55;;
45730;SDS011;31440;48.584;13.460;2023-03-01T05:54:22;22.08;;;12.30;;
45730;SDS011;31440;48.584;13.460;2023-03-01T05:57:28;25.55;;;12.30;;
45730;SDS011;31440;48.584;13.460;2023-03-01T06:00:34;25.30;;;12.32;;
45730;SDS011;31440;48.584;13.460;2023-03-01T06:06:45;26.13;;;13.07;;
45730;SDS011;31440;48.584;13.460;2023-03-01T06:09:49;27.88;;;13.57;;
45730;SDS011;31440;48.584;13.460;2023-03-01T06:12:54;22.98;;;13.10;;
45730;SDS011;31440;48.584;13.460;2023-03-01T06:15:58;22.85;;;12.75;;
45730;SDS011;31440;48.584;13.460;2023-03-01T06:19:03;22.38;;;12.93;;
45730;SDS011;31440;48.584;13.460;2023-03-01T06:22:07;21.23;;;13.18;;
45730;SDS011;31440;48.584;13.460;2023-03-01T06:25:13;22.30;;;12.32;;
45730;SDS011;31440;48.584;13.460;2023-03-01T06:28:19;25.83;;;13.55;;
45730;SDS011;31440;48.584;13.460;2023-03-01T06:31:24;26.58;;;13.95;;
45730;SDS011;31440;48.584;13.460;2023-03-01T06:34:29;23.05;;;12.32;;
45730;SDS011;31440;48.584;13.460;2023-03-01T06:37:35;25.88;;;12.00;;
45730;SDS011;31440;48.584;13.460;2023-03-01T06:40:39;25.35;;;12.40;;
45730;SDS011;31440;48.584;13.460;2023-03-01T06:43:44;23.02;;;11.38;;
45730;SDS011;31440;48.584;13.460;2023-03-01T06:46:48;26.02;;;12.25;;
45730;SDS011;31440;48.584;13.460;2023-03-01T06:49:53;21.65;;;11.55;;
45730;SDS011;31440;48.584;13.460;2023-03-01T06:52:58;21.75;;;11.75;;
45730;SDS011;31440;48.584;13.460;2023-03-01T06:56:02;26.88;;;13.13;;
45730;SDS011;31440;48.584;13.460;2023-03-01T07:02:13;21.58;;;12.30;;
45730;SDS011;31440;48.584;13.460;2023-03-01T07:05:19;27.25;;;13.80;;
45730;SDS011;31440;48.584;13.460;2023-03-01T07:08:24;28.52;;;12.98;;
45730;SDS011;31440;48.584;13.460;2023-03-01T07:11:28;24.92;;;12.75;;
45730;SDS011;31440;48.584;13.460;2023-03-01T07:14:33;25.02;;;13.70;;
45730;SDS011;31440;48.584;13.460;2023-03-01T07:17:37;27.55;;;13.57;;
45730;SDS011;31440;48.584;13.460;2023-03-01T07:20:42;22.40;;;12.43;;
45730;SDS011;31440;48.584;13.460;2023-03-01T07:23:47;23.98;;;12.38;;
45730;SDS011;31440;48.584;13.460;2023-03-01T07:26:52;25.40;;;12.77;;
45730;SDS011;31440;48.584;13.460;2023-03-01T07:29:57;22.45;;;12.77;;
45730;SDS011;31440;48.584;13.460;2023-03-01T07:33:02;24.73;;;12.02;;
45730;SDS011;31440;48.584;13.460;2023-03-01T07:36:07;23.67;;;13.27;;
45730;SDS011;31440;48.584;13.460;2023-03-01T07:39:12;23.27;;;12.07;;
45730;SDS011;31440;48.584;13.460;2023-03-01T07:42:16;22.00;;;12.05;;
45730;SDS011;31440;48.584;13.460;2023-03-01T07:45:21;23.13;;;12.00;;
45730;SDS011;31440;48.584;13.460;2023-03-01T07:48:25;22.98;;;12.70;;
45730;SDS011;31440;48.584;13.460;2023-03-01T07:51:30;24.00;;;12.80;;
45730;SDS011;31440;48.584;13.460;2023-03-01T07:54:34;25.05;;;12.05;;
45730;SDS011;31440;48.584;13.460;2023-03-01T07:57:39;22.50;;;12.77;;
45730;SDS011;31440;48.584;13.460;2023-03-01T08:00:44;29.13;;;14.77;;
45730;SDS011;31440;48.584;13.460;2023-03-01T08:03:48;24.25;;;12.00;;
45730;SDS011;31440;48.584;13.460;2023-03-01T08:06:54;23.48;;;12.50;;
45730;SDS011;31440;48.584;13.460;2023-03-01T08:09:59;21.13;;;13.30;;
45730;SDS011;31440;48.584;13.460;2023-03-01T08:13:03;26.85;;;11.93;;
45730;SDS011;31440;48.584;13.460;2023-03-01T08:16:10;24.70;;;12.68;;
45730;SDS011;31440;48.584;13.460;2023-03-01T08:19:16;23.65;;;11.05;;
45730;SDS011;31440;48.584;13.460;2023-03-01T08:22:21;24.55;;;13.77;;
45730;SDS011;31440;48.584;13.460;2023-03-01T08:25:25;22.02;;;12.20;;
45730;SDS011;31440;48.584;13.460;2023-03-01T08:28:30;23.80;;;11.50;;
45730;SDS011;31440;48.584;13.460;2023-03-01T08:31:36;25.27;;;12.02;;
45730;SDS011;31440;48.584;13.460;2023-03-01T08:34:45;23.67;;;11.80;;
45730;SDS011;31440;48.584;13.460;2023-03-01T08:37:50;26.65;;;12.30;;
45730;SDS011;31440;48.584;13.460;2023-03-01T08:40:55;18.73;;;10.85;;
45730;SDS011;31440;48.584;13.460;2023-03-01T08:44:04;18.65;;;11.73;;
45730;SDS011;31440;48.584;13.460;2023-03-01T08:47:09;20.98;;;10.35;;
45730;SDS011;31440;48.584;13.460;2023-03-01T08:50:13;23.27;;;12.50;;
45730;SDS011;31440;48.584;13.460;2023-03-01T08:56:24;20.10;;;10.82;;
45730;SDS011;31440;48.584;13.460;2023-03-01T08:59:28;18.13;;;11.02;;
45730;SDS011;31440;48.584;13.460;2023-03-01T09:02:34;19.60;;;10.32;;
45730;SDS011;31440;48.584;13.460;2023-03-01T09:05:38;21.90;;;10.52;;
45730;SDS011;31440;48.584;13.460;2023-03-01T09:08:45;20.60;;;11.35;;
45730;SDS011;31440;48.584;13.460;2023-03-01T09:14:58;19.40;;;10.43;;
45730;SDS011;31440;48.584;13.460;2023-03-01T09:18:02;22.48;;;12.32;;
45730;SDS011;31440;48.584;13.460;2023-03-01T09:21:11;19.65;;;11.32;;
45730;SDS011;31440;48.584;13.460;2023-03-01T09:24:18;20.63;;;10.70;;
45730;SDS011;31440;48.584;13.460;2023-03-01T09:30:31;17.08;;;10.20;;
45730;SDS011;31440;48.584;13.460;2023-03-01T09:33:36;19.63;;;11.13;;
45730;SDS011;31440;48.584;13.460;2023-03-01T09:36:40;17.25;;;10.05;;
45730;SDS011;31440;48.584;13.460;2023-03-01T09:39:45;20.00;;;10.82;;
45730;SDS011;31440;48.584;13.460;2023-03-01T09:42:59;17.63;;;10.40;;
45730;SDS011;31440;48.584;13.460;2023-03-01T09:46:11;20.45;;;10.93;;
45730;SDS011;31440;48.584;13.460;2023-03-01T09:49:23;20.83;;;11.23;;
45730;SDS011;31440;48.584;13.460;2023-03-01T09:52:38;18.63;;;9.98;;
45730;SDS011;31440;48.584;13.460;2023-03-01T09:55:59;15.50;;;9.85;;
45730;SDS011;31440;48.584;13.460;2023-03-01T10:09:10;16.65;;;9.13;;
45730;SDS011;31440;48.584;13.460;2023-03-01T10:12:26;16.27;;;9.15;;
45730;SDS011;31440;48.584;13.460;2023-03-01T10:15:41;14.63;;;9.35;;
45730;SDS011;31440;48.584;13.460;2023-03-01T10:18:53;17.95;;;10.45;;
45730;SDS011;31440;48.584;13.460;2023-03-01T10:22:37;16.73;;;9.80;;
45730;SDS011;31440;48.584;13.460;2023-03-01T10:28:54;15.02;;;9.10;;
45730;SDS011;31440;48.584;13.460;2023-03-01T10:32:03;16.25;;;8.50;;
45730;SDS011;31440;48.584;13.460;2023-03-01T10:35:21;12.48;;;8.43;;
45730;SDS011;31440;48.584;13.460;2023-03-01T10:38:30;11.63;;;7.78;;
45730;SDS011;31440;48.584;13.460;2023-03-01T10:42:01;12.02;;;8.02;;
45730;SDS011;31440;48.584;13.460;2023-03-01T10:48:38;8.90;;;6.60;;
45730;SDS011;31440;48.584;13.460;2023-03-01T10:51:44;11.80;;;7.43;;
45730;SDS011;31440;48.584;13.460;2023-03-01T10:54:58;16.77;;;8.68;;
45730;SDS011;31440;48.584;13.460;2023-03-01T10:58:23;13.30;;;7.38;;
45730;SDS011;31440;48.584;13.460;2023-03-01T11:01:32;10.77;;;7.80;;
45730;SDS011;31440;48.584;13.460;2023-03-01T11:04:39;11.02;;;7.70;;
45730;SDS011;31440;48.584;13.460;2023-03-01T11:07:48;11.45;;;8.13;;
45730;SDS011;31440;48.584;13.460;2023-03-01T11:11:00;11.52;;;6.82;;
45730;SDS011;31440;48.584;13.460;2023-03-01T11:17:31;12.23;;;6.90;;
45730;SDS011;31440;48.584;13.460;2023-03-01T11:20:50;13.10;;;7.80;;
45730;SDS011;31440;48.584;13.460;2023-03-01T11:23:58;9.45;;;6.93;;
45730;SDS011;31440;48.584;13.460;2023-03-01T11:27:06;11.30;;;6.95;;
45730;SDS011;31440;48.584;13.460;2023-03-01T11:33:48;13.50;;;6.45;;
45730;SDS011;31440;48.584;13.460;2023-03-01T11:40:13;8.73;;;5.82;;
45730;SDS011;31440;48.584;13.460;2023-03-01T11:49:52;11.40;;;5.47;;
45730;SDS011;31440;48.584;13.460;2023-03-01T11:56:29;8.65;;;5.10;;
45730;SDS011;31440;48.584;13.460;2023-03-01T12:02:56;11.70;;;6.43;;
45730;SDS011;31440;48.584;13.460;2023-03-01T12:06:26;11.70;;;6.95;;
45730;SDS011;31440;48.584;13.460;2023-03-01T12:16:55;9.30;;;7.00;;
45730;SDS011;31440;48.584;13.460;2023-03-01T12:27:10;11.63;;;8.20;;
45730;SDS011;31440;48.584;13.460;2023-03-01T12:30:35;13.50;;;8.30;;
45730;SDS011;31440;48.584;13.460;2023-03-01T12:50:35;19.00;;;10.05;;
45730;SDS011;31440;48.584;13.460;2023-03-01T12:56:51;13.30;;;8.95;;
45730;SDS011;31440;48.584;13.460;2023-03-01T13:03:24;14.57;;;9.55;;
45730;SDS011;31440;48.584;13.460;2023-03-01T13:13:43;15.20;;;8.82;;
45730;SDS011;31440;48.584;13.460;2023-03-01T13:16:52;17.48;;;9.50;;
45730;SDS011;31440;48.584;13.460;2023-03-01T13:19:57;16.08;;;9.13;;
45730;SDS011;31440;48.584;13.460;2023-03-01T13:29:30;10.43;;;7.80;;
45730;SDS011;31440;48.584;13.460;2023-03-01T13:32:49;14.30;;;8.18;;
45730;SDS011;31440;48.584;13.460;2023-03-01T13:35:54;15.00;;;8.48;;
45730;SDS011;31440;48.584;13.460;2023-03-01T13:39:02;11.13;;;8.57;;
45730;SDS011;31440;48.584;13.460;2023-03-01T13:45:43;11.48;;;7.78;;
45730;SDS011;31440;48.584;13.460;2023-03-01T13:48:51;12.35;;;7.72;;
45730;SDS011;31440;48.584;13.460;2023-03-01T13:51:59;12.38;;;7.05;;
45730;SDS011;31440;48.584;13.460;2023-03-01T13:58:47;11.40;;;7.47;;
45730;SDS011;31440;48.584;13.460;2023-03-01T14:01:55;11.55;;;6.93;;
45730;SDS011;31440;48.584;13.460;2023-03-01T14:05:02;8.65;;;6.38;;
45730;SDS011;31440;48.584;13.460;2023-03-01T14:08:18;11.02;;;6.50;;
45730;SDS011;31440;48.584;13.460;2023-03-01T14:18:18;10.35;;;6.80;;
45730;SDS011;31440;48.584;13.460;2023-03-01T14:21:30;9.68;;;5.90;;
45730;SDS011;31440;48.584;13.460;2023-03-01T14:24:34;9.07;;;5.22;;
45730;SDS011;31440;48.584;13.460;2023-03-01T14:27:43;8.57;;;6.10;;
45730;SDS011;31440;48.584;13.460;2023-03-01T14:30:49;8.75;;;6.20;;
45730;SDS011;31440;48.584;13.460;2023-03-01T14:33:56;10.50;;;5.47;;
45730;SDS011;31440;48.584;13.460;2023-03-01T14:40:19;6.60;;;5.22;;
45730;SDS011;31440;48.584;13.460;2023-03-01T14:43:29;9.15;;;5.30;;
45730;SDS011;31440;48.584;13.460;2023-03-01T14:46:38;9.05;;;6.03;;
45730;SDS011;31440;48.584;13.460;2023-03-01T14:49:45;10.18;;;6.28;;
45730;SDS011;31440;48.584;13.460;2023-03-01T14:52:52;8.85;;;5.03;;
45730;SDS011;31440;48.584;13.460;2023-03-01T14:56:01;11.57;;;6.13;;
45730;SDS011;31440;48.584;13.460;2023-03-01T14:59:07;8.38;;;4.93;;
45730;SDS011;31440;48.584;13.460;2023-03-01T15:02:15;9.40;;;5.35;;
45730;SDS011;31440;48.584;13.460;2023-03-01T15:08:34;8.93;;;5.40;;
45730;SDS011;31440;48.584;13.460;2023-03-01T15:11:40;11.75;;;6.00;;
45730;SDS011;31440;48.584;13.460;2023-03-01T15:18:15;9.85;;;5.50;;
45730;SDS011;31440;48.584;13.460;2023-03-01T15:21:34;9.50;;;6.07;;
45730;SDS011;31440;48.584;13.460;2023-03-01T15:24:40;10.32;;;5.25;;
45730;SDS011;31440;48.584;13.460;2023-03-01T15:27:49;10.90;;;6.28;;
45730;SDS011;31440;48.584;13.460;2023-03-01T15:30:56;10.38;;;6.32;;
45730;SDS011;31440;48.584;13.460;2023-03-01T15:34:28;8.50;;;5.63;;
45730;SDS011;31440;48.584;13.460;2023-03-01T15:43:49;10.85;;;6.00;;
45730;SDS011;31440;48.584;13.460;2023-03-01T15:46:54;11.65;;;6.13;;
45730;SDS011;31440;48.584;13.460;2023-03-01T15:50:00;11.48;;;6.20;;
45730;SDS011;31440;48.584;13.460;2023-03-01T15:53:06;9.05;;;6.13;;
45730;SDS011;31440;48.584;13.460;2023-03-01T15:56:15;10.23;;;6.18;;
45730;SDS011;31440;48.584;13.460;2023-03-01T15:59:20;10.50;;;6.55;;
45730;SDS011;31440;48.584;13.460;2023-03-01T16:02:26;9.00;;;6.07;;
45730;SDS011;31440;48.584;13.460;2023-03-01T16:05:32;10.13;;;6.00;;
45730;SDS011;31440;48.584;13.460;2023-03-01T16:08:38;12.30;;;6.20;;
45730;SDS011;31440;48.584;13.460;2023-03-01T16:11:44;14.18;;;7.35;;
45730;SDS011;31440;48.584;13.460;2023-03-01T16:14:48;13.32;;;6.22;;
45730;SDS011;31440;48.584;13.460;2023-03-01T16:17:53;11.68;;;6.20;;
45730;SDS011;31440;48.584;13.460;2023-03-01T16:20:58;11.90;;;5.72;;
45730;SDS011;31440;48.584;13.460;2023-03-01T16:24:03;12.20;;;6.15;;
45730;SDS011;31440;48.584;13.460;2023-03-01T16:27:08;11.07;;;6.47;;
45730;SDS011;31440;48.584;13.460;2023-03-01T16:30:17;16.17;;;7.63;;
45730;SDS011;31440;48.584;13.460;2023-03-01T16:33:23;16.52;;;7.68;;
45730;SDS011;31440;48.584;13.460;2023-03-01T16:36:37;17.27;;;8.18;;
45730;SDS011;31440;48.584;13.460;2023-03-01T16:39:41;14.43;;;7.93;;
45730;SDS011;31440;48.584;13.460;2023-03-01T16:42:49;12.80;;;7.18;;
45730;SDS011;31440;48.584;13.460;2023-03-01T16:45:54;12.25;;;8.10;;
45730;SDS011;31440;48.584;13.460;2023-03-01T16:48:58;13.50;;;7.57;;
45730;SDS011;31440;48.584;13.460;2023-03-01T16:52:03;16.48;;;7.25;;
45730;SDS011;31440;48.584;13.460;2023-03-01T16:55:08;12.45;;;7.32;;
45730;SDS011;31440;48.584;13.460;2023-03-01T16:58:13;11.60;;;7.20;;
45730;SDS011;31440;48.584;13.460;2023-03-01T17:04:30;13.65;;;8.30;;
45730;SDS011;31440;48.584;13.460;2023-03-01T17:07:34;16.75;;;7.05;;
45730;SDS011;31440;48.584;13.460;2023-03-01T17:10:40;16.17;;;7.07;;
45730;SDS011;31440;48.584;13.460;2023-03-01T17:13:46;14.32;;;8.15;;
45730;SDS011;31440;48.584;13.460;2023-03-01T17:16:51;13.57;;;7.78;;
45730;SDS011;31440;48.584;13.460;2023-03-01T17:19:57;13.60;;;7.88;;
45730;SDS011;31440;48.584;13.460;2023-03-01T17:23:02;18.15;;;9.43;;
45730;SDS011;31440;48.584;13.460;2023-03-01T17:26:06;12.90;;;7.72;;
45730;SDS011;31440;48.584;13.460;2023-03-01T17:29:11;17.88;;;8.25;;
45730;SDS011;31440;48.584;13.460;2023-03-01T17:32:16;15.52;;;8.85;;
45730;SDS011;31440;48.584;13.460;2023-03-01T17:35:21;16.10;;;8.32;;
45730;SDS011;31440;48.584;13.460;2023-03-01T17:41:32;14.48;;;8.50;;
45730;SDS011;31440;48.584;13.460;2023-03-01T17:44:36;22.58;;;9.43;;
45730;SDS011;31440;48.584;13.460;2023-03-01T17:47:41;14.07;;;9.27;;
45730;SDS011;31440;48.584;13.460;2023-03-01T17:50:45;19.50;;;9.75;;
45730;SDS011;31440;48.584;13.460;2023-03-01T17:53:51;19.20;;;9.25;;
45730;SDS011;31440;48.584;13.460;2023-03-01T17:56:56;23.08;;;9.63;;
45730;SDS011;31440;48.584;13.460;2023-03-01T18:00:02;16.38;;;8.93;;
45730;SDS011;31440;48.584;13.460;2023-03-01T18:03:14;12.85;;;8.50;;
45730;SDS011;31440;48.584;13.460;2023-03-01T18:06:20;18.17;;;10.70;;
45730;SDS011;31440;48.584;13.460;2023-03-01T18:09:27;19.38;;;11.25;;
45730;SDS011;31440;48.584;13.460;2023-03-01T18:12:31;19.67;;;9.38;;
45730;SDS011;31440;48.584;13.460;2023-03-01T18:15:36;17.15;;;10.25;;
45730;SDS011;31440;48.584;13.460;2023-03-01T18:18:41;16.42;;;9.32;;
45730;SDS011;31440;48.584;13.460;2023-03-01T18:21:45;18.35;;;10.02;;
45730;SDS011;31440;48.584;13.460;2023-03-01T18:24:50;19.63;;;10.77;;
45730;SDS011;31440;48.584;13.460;2023-03-01T18:27:55;20.73;;;10.82;;
45730;SDS011;31440;48.584;13.460;2023-03-01T18:31:00;19.60;;;10.07;;
45730;SDS011;31440;48.584;13.460;2023-03-01T18:34:08;20.67;;;10.60;;
45730;SDS011;31440;48.584;13.460;2023-03-01T18:37:14;16.92;;;10.07;;
45730;SDS011;31440;48.584;13.460;2023-03-01T18:40:19;19.42;;;11.07;;
45730;SDS011;31440;48.584;13.460;2023-03-01T18:43:24;25.85;;;12.73;;
45730;SDS011;31440;48.584;13.460;2023-03-01T18:46:32;17.88;;;9.85;;
45730;SDS011;31440;48.584;13.460;2023-03-01T18:49:40;19.35;;;11.15;;
45730;SDS011;31440;48.584;13.460;2023-03-01T18:52:44;20.70;;;11.10;;
45730;SDS011;31440;48.584;13.460;2023-03-01T18:55:49;20.52;;;11.85;;
45730;SDS011;31440;48.584;13.460;2023-03-01T18:58:54;21.92;;;11.70;;
45730;SDS011;31440;48.584;13.460;2023-03-01T19:02:00;19.58;;;10.73;;
45730;SDS011;31440;48.584;13.460;2023-03-01T19:05:05;20.20;;;11.50;;
45730;SDS011;31440;48.584;13.460;2023-03-01T19:08:10;21.73;;;10.27;;
45730;SDS011;31440;48.584;13.460;2023-03-01T19:11:15;25.25;;;11.73;;
45730;SDS011;31440;48.584;13.460;2023-03-01T19:14:20;18.23;;;10.32;;
45730;SDS011;31440;48.584;13.460;2023-03-01T19:17:25;23.00;;;11.70;;
45730;SDS011;31440;48.584;13.460;2023-03-01T19:20:35;23.33;;;11.98;;
45730;SDS011;31440;48.584;13.460;2023-03-01T19:26:49;20.85;;;12.00;;
45730;SDS011;31440;48.584;13.460;2023-03-01T19:29:53;19.42;;;10.52;;
45730;SDS011;31440;48.584;13.460;2023-03-01T19:32:58;25.80;;;12.00;;
45730;SDS011;31440;48.584;13.460;2023-03-01T19:36:02;19.38;;;10.30;;
45730;SDS011;31440;48.584;13.460;2023-03-01T19:39:07;20.83;;;11.45;;
45730;SDS011;31440;48.584;13.460;2023-03-01T19:42:13;23.10;;;10.68;;
45730;SDS011;31440;48.584;13.460;2023-03-01T19:45:17;20.23;;;11.65;;
45730;SDS011;31440;48.584;13.460;2023-03-01T19:48:35;18.73;;;10.95;;
45730;SDS011;31440;48.584;13.460;2023-03-01T19:51:39;25.40;;;11.70;;
45730;SDS011;31440;48.584;13.460;2023-03-01T19:54:44;17.55;;;9.95;;
45730;SDS011;31440;48.584;13.460;2023-03-01T19:57:50;21.92;;;10.80;;
45730;SDS011;31440;48.584;13.460;2023-03-01T20:00:54;20.58;;;11.38;;
45730;SDS011;31440;48.584;13.460;2023-03-01T20:04:03;20.67;;;10.60;;
45730;SDS011;31440;48.584;13.460;2023-03-01T20:07:08;20.60;;;10.77;;
45730;SDS011;31440;48.584;13.460;2023-03-01T20:10:13;19.25;;;10.65;;
45730;SDS011;31440;48.584;13.460;2023-03-01T20:13:17;16.95;;;10.23;;
45730;SDS011;31440;48.584;13.460;2023-03-01T20:16:24;21.15;;;12.00;;
45730;SDS011;31440;48.584;13.460;2023-03-01T20:19:30;20.02;;;10.25;;
45730;SDS011;31440;48.584;13.460;2023-03-01T20:22:34;23.63;;;11.90;;
45730;SDS011;31440;48.584;13.460;2023-03-01T20:25:40;18.42;;;10.80;;
45730;SDS011;31440;48.584;13.460;2023-03-01T20:28:46;17.77;;;9.30;;
45730;SDS011;31440;48.584;13.460;2023-03-01T20:31:52;22.20;;;9.93;;
45730;SDS011;31440;48.584;13.460;2023-03-01T20:34:57;18.73;;;11.07;;
45730;SDS011;31440;48.584;13.460;2023-03-01T20:38:02;20.23;;;10.88;;
45730;SDS011;31440;48.584;13.460;2023-03-01T20:41:11;17.60;;;9.52;;
45730;SDS011;31440;48.584;13.460;2023-03-01T20:44:16;31.35;;;12.00;;
45730;SDS011;31440;48.584;13.460;2023-03-01T20:47:20;19.48;;;10.77;;
45730;SDS011;31440;48.584;13.460;2023-03-01T20:50:26;18.05;;;10.80;;
45730;SDS011;31440;48.584;13.460;2023-03-01T20:53:30;23.95;;;12.15;;
45730;SDS011;31440;48.584;13.460;2023-03-01T20:56:35;20.25;;;10.13;;
45730;SDS011;31440;48.584;13.460;2023-03-01T20:59:40;19.02;;;9.85;;